Terminal Aerodrome Forecast
Issued by NWS

Home | Current Version | Previous Version | Text Only | Print | Product List | Glossary On
Versions: 1 2 3 4 5 6 7 8 9 10 11 12 13 14 15 16 17 18 19 20 21 22 23 24 25 26 27 28
000
FTUS45 KGJT 010531
TAFEGE
TAF
KEGE 010531Z 0106/0206 10004KT P6SM FEW120 SCT200
     FM011400 VRB03KT P6SM FEW150 SCT200
     FM011900 26008KT P6SM SCT100 SCT150
     FM012200 28008KT P6SM VCTS BKN100CB
     FM020300 08005KT P6SM SCT100 BKN200
      AMD LTD TO CLD VIS AND WIND TIL 011300=

USA.gov is the U.S. government's official web portal to all federal, state and local government web resources and services.